Time;durP1;ratioP1;P1;durP2;ratioP2;P2;SDS_P1;SDS_P2;PMS_P1;PMS_P2;Temp;Humidity;BMP_temperature;BMP_pressure;BME280_temperature;BME280_humidity;BME280_pressure;Samples;Min_cycle;Max_cycle;Signal;HPM_P1;HPM_P2
2022/12/26 00:01:10;;;;;;;12.43;8.23;;;;;;;;;;5059765;28;20040;-68
2022/12/26 00:03:36;;;;;;;12.10;7.93;;;;;;;;;;5073180;28;20048;-68
2022/12/26 00:06:02;;;;;;;12.20;7.97;;;15.70;98.60;;;;;;5068064;28;20048;-68
2022/12/26 00:08:28;;;;;;;11.98;7.80;;;15.70;99.00;;;;;;5073249;28;20135;-73
2022/12/26 00:10:54;;;;;;;11.55;8.13;;;15.70;99.90;;;;;;5072703;28;20132;-72
2022/12/26 00:13:20;;;;;;;11.90;7.50;;;15.50;98.10;;;;;;5075258;28;20036;-69
2022/12/26 00:15:46;;;;;;;11.70;7.80;;;15.70;99.90;;;;;;5049316;28;20049;-74
2022/12/26 00:18:12;;;;;;;13.13;7.57;;;15.60;99.90;;;;;;5048127;28;20120;-74
2022/12/26 00:20:37;;;;;;;12.00;7.68;;;15.70;98.90;;;;;;5053765;28;20103;-66
2022/12/26 00:23:03;;;;;;;11.73;7.18;;;15.70;99.90;;;;;;5072208;28;20041;-67
2022/12/26 00:25:29;;;;;;;12.40;7.72;;;15.70;99.90;;;;;;5075045;28;20137;-67
2022/12/26 00:27:55;;;;;;;11.25;7.22;;;15.70;99.90;;;;;;5073720;28;20178;-66
2022/12/26 00:30:21;;;;;;;12.55;7.72;;;15.50;99.90;;;;;;5073736;28;20048;-68
2022/12/26 00:32:47;;;;;;;13.10;7.50;;;15.50;99.90;;;;;;5048709;28;20087;-67
2022/12/26 00:35:12;;;;;;;10.88;7.15;;;15.50;99.90;;;;;;5035237;28;20391;-67
2022/12/26 00:37:38;;;;;;;12.30;7.97;;;15.60;99.80;;;;;;5035180;28;20072;-68
2022/12/26 00:40:05;;;;;;;10.98;7.32;;;15.50;99.80;;;;;;5034903;28;20076;-67
2022/12/26 00:42:30;;;;;;;10.23;6.30;;;15.40;99.70;;;;;;5047931;28;20036;-67
2022/12/26 00:44:56;;;;;;;11.55;7.75;;;15.40;99.70;;;;;;5074696;28;20471;-68
2022/12/26 00:47:22;;;;;;;10.77;7.25;;;15.70;99.80;;;;;;5074940;28;20033;-66
2022/12/26 00:49:48;;;;;;;12.05;7.32;;;15.60;99.70;;;;;;5066443;28;20048;-68
2022/12/26 00:52:13;;;;;;;10.95;7.03;;;15.70;99.60;;;;;;5072119;28;20044;-68
2022/12/26 00:54:39;;;;;;;11.73;7.53;;;15.70;99.70;;;;;;5075061;28;20036;-67
2022/12/26 00:57:05;;;;;;;10.93;7.07;;;15.50;99.60;;;;;;5074725;28;20109;-68
2022/12/26 00:59:31;;;;;;;11.43;7.07;;;15.70;98.50;;;;;;5074443;28;20045;-67
2022/12/26 01:01:56;;;;;;;11.77;6.93;;;15.70;99.60;;;;;;5074646;28;20044;-67
2022/12/26 01:04:22;;;;;;;10.57;7.03;;;15.60;98.40;;;;;;5069357;28;20047;-67
2022/12/26 01:06:48;;;;;;;11.18;6.63;;;;;;;;;;5049551;28;20077;-69
2022/12/26 01:09:14;;;;;;;12.10;7.22;;;15.80;99.70;;;;;;5034309;28;20140;-68
2022/12/26 01:11:40;;;;;;;10.68;7.07;;;15.70;99.60;;;;;;5034539;28;20136;-68
2022/12/26 01:14:09;;;;;;;13.10;7.50;;;15.70;98.20;;;;;;5056214;28;20048;-66
2022/12/26 01:16:36;;;;;;;11.52;7.15;;;15.50;99.60;;;;;;5072415;28;20063;-68
2022/12/26 01:19:02;;;;;;;10.77;6.90;;;15.70;99.50;;;;;;5073941;28;20124;-67
2022/12/26 01:21:28;;;;;;;10.50;6.78;;;15.40;99.50;;;;;;5073783;28;20182;-67
2022/12/26 01:23:54;;;;;;;13.88;7.78;;;15.30;99.40;;;;;;5059037;28;20071;-66
2022/12/26 01:26:20;;;;;;;13.55;8.18;;;15.60;99.40;;;;;;5073089;28;20094;-68
2022/12/26 01:28:47;;;;;;;10.48;7.32;;;;;;;;;;5074120;28;20494;-67
2022/12/26 01:31:13;;;;;;;11.05;7.03;;;15.50;99.40;;;;;;5073734;28;20048;-66
2022/12/26 01:33:38;;;;;;;11.68;7.60;;;15.50;99.30;;;;;;5071378;28;20051;-66
2022/12/26 01:36:04;;;;;;;11.18;7.30;;;15.70;99.50;;;;;;5072761;28;20071;-68
2022/12/26 01:38:30;;;;;;;12.05;7.25;;;15.50;99.30;;;;;;5073951;28;20453;-67
2022/12/26 01:43:53;;;;;;;10.82;6.85;;;15.30;99.30;;;;;;5033953;28;20057;-68
2022/12/26 01:46:38;;;;;;;10.90;7.00;;;15.50;99.40;;;;;;5069085;28;20384;-72
2022/12/26 01:49:22;;;;;;;11.70;7.22;;;15.60;99.40;;;;;;5073779;28;20432;-73
2022/12/26 01:51:49;;;;;;;13.43;7.97;;;;;;;;;;5073568;28;20402;-68
2022/12/26 01:54:15;;;;;;;11.68;6.90;;;15.80;99.50;;;;;;5069059;28;20032;-68
2022/12/26 01:56:41;;;;;;;11.88;7.53;;;15.80;99.40;;;;;;5068393;28;20403;-68
2022/12/26 01:59:09;;;;;;;10.30;6.70;;;;;;;;;;5052246;28;20538;-68
2022/12/26 02:01:36;;;;;;;10.13;6.80;;;15.60;99.40;;;;;;5052232;28;20490;-68
2022/12/26 02:06:48;;;;;;;9.32;6.15;;;15.50;99.30;;;;;;5055298;28;20414;-68
2022/12/26 02:09:14;;;;;;;10.80;6.55;;;15.30;99.20;;;;;;5070043;28;20044;-68
2022/12/26 02:11:43;;;;;;;10.07;6.28;;;15.50;99.30;;;;;;5054699;28;20453;-69
2022/12/26 02:14:09;;;;;;;10.02;6.28;;;15.50;99.20;;;;;;5040607;28;20053;-68
2022/12/26 02:16:35;;;;;;;10.00;6.63;;;15.60;98.10;;;;;;5069061;28;20044;-68
2022/12/26 02:19:01;;;;;;;10.40;5.93;;;15.40;99.20;;;;;;5073344;28;20040;-69
2022/12/26 02:21:51;;;;;;;9.70;6.60;;;15.60;99.20;;;;;;5073331;28;20139;-68
2022/12/26 02:24:28;;;;;;;11.57;6.80;;;15.50;99.20;;;;;;5072257;28;20083;-69
2022/12/26 02:27:09;;;;;;;10.98;7.25;;;15.50;97.10;;;;;;5070680;28;20054;-68
2022/12/26 02:29:56;;;;;;;10.25;6.07;;;15.60;99.20;;;;;;5071492;28;20052;-69
2022/12/26 02:32:44;;;;;;;9.93;6.40;;;15.50;99.20;;;;;;5033874;28;20046;-68
2022/12/26 02:35:27;;;;;;;10.10;6.60;;;15.50;97.30;;;;;;5034517;28;20050;-61
2022/12/26 02:38:28;;;;;;;10.07;6.03;;;15.50;99.10;;;;;;5046475;28;20044;-67
2022/12/26 02:41:27;;;;;;;9.43;6.25;;;15.30;97.90;;;;;;5067211;28;20551;-67
2022/12/26 02:47:06;;;;;;;9.15;6.00;;;15.40;99.10;;;;;;5066095;28;20059;-67
2022/12/26 03:13:09;;;;;;;9.68;6.35;;;;;;;;;;5018122;28;20064;-68
2022/12/26 03:14:40;;;;;;;9.60;5.75;;;15.30;97.80;;;;;;5062424;28;20169;-67
2022/12/26 03:17:19;;;;;;;8.13;5.30;;;15.50;99.00;;;;;;5075365;28;20084;-67
2022/12/26 03:20:03;;;;;;;9.20;5.30;;;15.50;97.10;;;;;;5020914;28;20407;-67
2022/12/26 03:23:03;;;;;;;9.63;4.88;;;15.60;99.00;;;;;;5036868;28;20128;-67
2022/12/26 03:28:20;;;;;;;7.93;5.13;;;15.60;99.00;;;;;;5064028;28;20080;-67
2022/12/26 03:30:48;;;;;;;8.35;5.00;;;15.50;98.90;;;;;;5075694;28;20094;-67
2022/12/26 03:36:03;;;;;;;8.20;4.70;;;15.40;97.70;;;;;;5075970;28;20501;-67
2022/12/26 03:38:34;;;;;;;7.68;4.63;;;15.40;98.90;;;;;;5069863;28;20521;-67
2022/12/26 04:19:25;;;;;;;8.98;5.78;;;15.60;97.40;;;;;;5054461;28;20055;-67
2022/12/26 04:44:30;;;;;;;8.88;5.80;;;15.50;98.80;;;;;;5073722;28;20086;-68
2022/12/26 04:46:56;;;;;;;10.15;6.13;;;15.60;98.90;;;;;;5046500;28;20076;-67
2022/12/26 04:52:08;;;;;;;9.63;6.43;;;15.40;99.00;;;;;;5071232;28;20052;-68
2022/12/26 04:54:34;;;;;;;10.60;7.43;;;;;;;;;;5074492;28;20037;-69
2022/12/26 04:57:00;;;;;;;10.50;7.35;;;15.20;97.60;;;;;;5074479;28;20509;-68
2022/12/26 04:59:26;;;;;;;10.23;7.03;;;;;;;;;;5074760;28;20036;-68
2022/12/26 05:10:10;;;;;;;11.70;8.38;;;15.50;99.20;;;;;;5073338;28;20498;-69
2022/12/26 05:12:37;;;;;;;11.80;7.55;;;15.50;98.50;;;;;;5071534;28;20056;-68
2022/12/26 05:15:03;;;;;;;13.85;8.90;;;15.50;98.80;;;;;;5074954;28;20051;-69
2022/12/26 05:28:42;;;;;;;12.98;8.23;;;15.10;98.60;;;;;;5074126;28;20080;-68
2022/12/26 05:31:11;;;;;;;12.25;8.25;;;15.30;97.10;;;;;;5070246;28;20048;-67
2022/12/26 05:36:23;;;;;;;11.27;7.88;;;15.40;98.80;;;;;;5073991;28;20449;-68
2022/12/26 05:38:49;;;;;;;12.00;8.30;;;15.60;98.80;;;;;;5047275;28;20048;-66
2022/12/26 05:41:15;;;;;;;11.45;7.53;;;15.30;98.70;;;;;;5034049;28;20402;-67
2022/12/26 05:43:41;;;;;;;12.57;8.68;;;15.80;98.80;;;;;;5054911;28;20044;-68
2022/12/26 05:46:06;;;;;;;12.00;8.30;;;15.80;98.80;;;;;;5073943;28;20100;-68
2022/12/26 05:48:32;;;;;;;11.85;7.95;;;15.50;98.70;;;;;;5073759;28;20032;-68
2022/12/26 05:50:59;;;;;;;12.15;8.02;;;15.20;96.90;;;;;;5071180;28;20074;-68
2022/12/26 05:53:25;;;;;;;11.90;8.45;;;;;;;;;;5071318;28;20044;-68
2022/12/26 05:55:51;;;;;;;12.55;8.88;;;15.40;98.70;;;;;;5047482;28;20049;-67
2022/12/26 05:58:17;;;;;;;11.35;8.30;;;15.40;98.60;;;;;;5033829;28;20052;-68
2022/12/26 06:00:42;;;;;;;12.52;8.73;;;15.60;98.70;;;;;;5033780;28;20048;-68
2022/12/26 06:03:09;;;;;;;12.73;9.13;;;;;;;;;;5033269;28;20479;-67
2022/12/26 06:05:34;;;;;;;13.52;8.50;;;15.70;98.60;;;;;;5071966;28;20123;-68
2022/12/26 06:08:00;;;;;;;12.02;8.48;;;15.30;98.50;;;;;;5073617;28;20178;-68
2022/12/26 06:10:28;;;;;;;12.57;8.98;;;15.50;98.50;;;;;;5069705;28;20061;-67
2022/12/26 06:12:55;;;;;;;11.60;8.85;;;15.60;98.50;;;;;;5046124;28;20041;-67
2022/12/26 06:15:21;;;;;;;14.07;9.00;;;15.50;98.50;;;;;;5062753;28;20048;-68
2022/12/26 06:17:47;;;;;;;11.15;7.97;;;15.30;98.50;;;;;;5073540;28;20046;-67
2022/12/26 06:20:13;;;;;;;11.25;8.05;;;15.40;98.80;;;;;;5073153;28;20040;-68
2022/12/26 06:22:38;;;;;;;12.93;8.50;;;15.50;98.50;;;;;;5067282;28;20079;-75
2022/12/26 06:25:05;;;;;;;12.60;8.82;;;15.40;98.50;;;;;;5070618;28;20128;-74
2022/12/26 06:27:30;;;;;;;11.73;8.10;;;15.40;97.30;;;;;;5073485;28;20033;-66
2022/12/26 06:29:56;;;;;;;11.75;8.65;;;15.40;98.40;;;;;;5045415;28;20041;-74
2022/12/26 06:32:22;;;;;;;11.25;8.90;;;;;;;;;;5033408;28;20049;-73
2022/12/26 06:34:48;;;;;;;11.57;8.45;;;15.10;98.40;;;;;;5039632;28;20044;-74
2022/12/26 06:37:14;;;;;;;11.68;8.60;;;15.60;98.50;;;;;;5072019;28;20466;-65
2022/12/26 06:39:39;;;;;;;12.88;8.40;;;15.40;98.40;;;;;;5076271;28;20044;-68
2022/12/26 06:42:05;;;;;;;10.35;7.85;;;15.60;98.40;;;;;;5077402;28;20386;-68
2022/12/26 06:44:31;;;;;;;12.90;9.07;;;15.80;98.50;;;;;;5077282;28;20051;-67
2022/12/26 06:46:57;;;;;;;12.43;8.20;;;15.40;97.20;;;;;;5046800;28;20622;-68
2022/12/26 06:49:25;;;;;;;11.23;8.48;;;15.40;98.30;;;;;;5047102;28;20040;-68
2022/12/26 06:51:51;;;;;;;11.82;8.35;;;15.60;98.40;;;;;;5076813;28;20052;-68
2022/12/26 06:54:17;;;;;;;11.07;7.78;;;;;;;;;;5073133;28;20407;-67
2022/12/26 06:56:43;;;;;;;12.38;7.88;;;15.10;98.20;;;;;;5075066;28;20044;-68
2022/12/26 06:59:09;;;;;;;10.68;7.65;;;15.60;98.40;;;;;;5077049;28;20052;-66
2022/12/26 07:01:35;;;;;;;11.88;8.00;;;15.60;98.30;;;;;;5058147;28;20041;-69
2022/12/26 07:04:01;;;;;;;11.57;8.00;;;15.60;98.30;;;;;;5047202;28;20056;-68
2022/12/26 07:06:28;;;;;;;11.75;7.55;;;15.20;97.40;;;;;;5062080;28;20047;-68
2022/12/26 07:08:56;;;;;;;10.82;8.07;;;15.60;98.30;;;;;;5077360;28;20044;-68
2022/12/26 07:11:24;;;;;;;11.10;7.53;;;15.30;97.00;;;;;;5076444;28;20509;-67
2022/12/26 07:13:50;;;;;;;11.65;7.97;;;15.40;98.20;;;;;;5076715;28;20041;-75
2022/12/26 07:16:16;;;;;;;9.63;7.15;;;;;;;;;;5074051;28;20040;-68
2022/12/26 07:18:43;;;;;;;10.43;7.78;;;;;;;;;;5076470;28;20041;-68
2022/12/26 07:21:10;;;;;;;11.57;7.85;;;15.60;98.40;;;;;;5045448;28;20128;-68
2022/12/26 07:23:35;;;;;;;11.77;7.65;;;15.70;98.30;;;;;;5070309;28;20045;-68
2022/12/26 07:26:01;;;;;;;10.18;7.68;;;15.50;98.20;;;;;;5073960;28;20106;-68
2022/12/26 07:28:27;;;;;;;10.27;7.75;;;15.50;97.00;;;;;;5074901;28;20579;-67
2022/12/26 07:30:53;;;;;;;11.80;7.53;;;15.30;98.10;;;;;;5076342;28;20044;-68
2022/12/26 07:33:19;;;;;;;11.45;7.65;;;15.60;98.30;;;;;;5075212;28;20398;-75
2022/12/26 07:35:45;;;;;;;11.02;7.18;;;15.50;98.20;;;;;;5072026;28;20448;-75
2022/12/26 07:38:11;;;;;;;12.07;6.75;;;15.30;98.10;;;;;;5042145;28;20044;-68
2022/12/26 07:40:36;;;;;;;11.90;7.63;;;15.50;98.20;;;;;;5036616;28;20042;-67
2022/12/26 07:43:02;;;;;;;11.57;7.43;;;15.50;98.20;;;;;;5037095;28;20483;-69
2022/12/26 07:45:28;;;;;;;10.00;7.20;;;15.30;98.10;;;;;;5036268;28;20124;-68
2022/12/26 07:47:54;;;;;;;10.68;6.97;;;15.40;96.90;;;;;;5061721;28;20444;-67
2022/12/26 07:50:21;;;;;;;11.13;7.10;;;15.50;98.10;;;;;;5075573;28;20166;-67
2022/12/26 07:52:47;;;;;;;10.85;7.15;;;15.60;98.20;;;;;;5076103;28;20059;-67
2022/12/26 07:55:13;;;;;;;10.93;7.25;;;15.60;98.10;;;;;;5050290;28;20478;-70
2022/12/26 07:57:39;;;;;;;9.75;6.65;;;15.70;98.20;;;;;;5069914;28;20049;-67
2022/12/26 08:00:05;;;;;;;10.23;7.05;;;15.30;96.80;;;;;;5075959;28;20094;-68
2022/12/26 08:02:31;;;;;;;9.63;6.70;;;15.70;98.10;;;;;;5071706;28;20075;-68
2022/12/26 08:04:57;;;;;;;12.45;6.85;;;15.50;96.80;;;;;;5075864;28;20068;-69
2022/12/26 08:07:23;;;;;;;9.52;6.63;;;15.40;98.00;;;;;;5062374;28;20068;-68
2022/12/26 08:09:49;;;;;;;10.98;7.07;;;15.60;97.30;;;;;;5044085;28;20487;-68
2022/12/26 08:12:14;;;;;;;10.75;6.57;;;15.50;98.10;;;;;;5050876;28;20124;-68
2022/12/26 08:14:40;;;;;;;10.23;6.07;;;15.30;98.00;;;;;;5075847;28;20045;-68
2022/12/26 08:17:06;;;;;;;9.77;6.18;;;15.40;98.00;;;;;;5075300;28;20090;-69
2022/12/26 08:19:32;;;;;;;10.10;6.72;;;15.80;98.00;;;;;;5069613;28;20062;-70
2022/12/26 08:21:58;;;;;;;9.38;5.95;;;15.50;98.00;;;;;;5066358;28;20534;-68
2022/12/26 08:24:24;;;;;;;9.60;6.32;;;;;;;;;;5064621;28;20136;-74
2022/12/26 08:26:50;;;;;;;10.82;5.75;;;;;;;;;;5070347;28;20044;-71
2022/12/26 08:29:16;;;;;;;10.38;6.10;;;15.60;96.70;;;;;;5061126;28;20051;-69
2022/12/26 08:31:42;;;;;;;9.50;6.22;;;15.40;97.90;;;;;;5075303;28;20044;-69
2022/12/26 08:34:08;;;;;;;10.93;5.60;;;15.40;97.90;;;;;;5064766;28;20098;-67
2022/12/26 08:36:34;;;;;;;8.43;5.70;;;15.20;97.80;;;;;;5055109;28;20056;-68
2022/12/26 08:39:00;;;;;;;9.43;5.53;;;15.60;97.90;;;;;;5055204;28;20467;-67
2022/12/26 08:41:26;;;;;;;9.50;5.93;;;15.70;97.90;;;;;;5055065;28;20049;-68
2022/12/26 08:43:52;;;;;;;9.63;5.18;;;15.50;97.90;;;;;;5073716;28;20124;-68
2022/12/26 08:46:19;;;;;;;9.20;5.13;;;15.70;97.90;;;;;;5041102;28;20052;-64
2022/12/26 08:48:45;;;;;;;8.75;5.55;;;15.60;97.90;;;;;;5034703;28;20048;-68
2022/12/26 08:51:18;;;;;;;10.00;5.90;;;15.60;95.90;;;;;;5036735;28;20120;-68
2022/12/26 08:53:45;;;;;;;9.13;5.70;;;15.50;97.80;;;;;;5061016;28;20040;-67
2022/12/26 08:56:16;;;;;;;9.45;5.50;;;15.70;97.80;;;;;;5073766;28;20048;-68
2022/12/26 08:58:42;;;;;;;9.30;5.13;;;15.60;96.20;;;;;;5074740;28;20097;-68
2022/12/26 09:01:16;;;;;;;8.40;5.13;;;15.50;97.80;;;;;;5069861;28;20440;-68
2022/12/26 09:03:42;;;;;;;7.68;5.03;;;15.50;97.80;;;;;;5069615;28;20110;-70
2022/12/26 09:06:08;;;;;;;8.02;5.28;;;15.30;96.50;;;;;;5072025;28;20076;-67
2022/12/26 09:08:35;;;;;;;7.97;5.18;;;15.50;97.80;;;;;;5074587;28;20040;-66
2022/12/26 09:11:02;;;;;;;8.93;5.25;;;15.50;97.70;;;;;;5074039;28;20053;-68
2022/12/26 09:13:28;;;;;;;8.85;5.20;;;15.50;97.70;;;;;;5071929;28;20464;-68
2022/12/26 09:15:54;;;;;;;10.15;5.68;;;15.40;97.70;;;;;;5074666;28;20049;-61
2022/12/26 09:18:20;;;;;;;10.02;5.53;;;;;;;;;;5071267;28;20040;-68
2022/12/26 09:20:46;;;;;;;9.20;5.45;;;15.50;97.70;;;;;;5033917;28;20491;-68
2022/12/26 09:23:14;;;;;;;8.25;4.82;;;15.20;96.40;;;;;;5047989;28;20119;-68
2022/12/26 09:25:39;;;;;;;8.07;5.18;;;15.50;97.70;;;;;;5072690;28;20058;-73
2022/12/26 09:28:05;;;;;;;10.80;4.80;;;15.30;97.70;;;;;;5074152;28;20044;-73
2022/12/26 09:30:31;;;;;;;7.75;4.90;;;15.60;97.70;;;;;;5073801;28;20044;-75
2022/12/26 09:32:57;;;;;;;8.27;4.72;;;15.20;97.60;;;;;;5071196;28;20052;-67
2022/12/26 09:35:23;;;;;;;10.15;4.93;;;15.40;97.60;;;;;;5071851;28;20045;-67
2022/12/26 09:37:49;;;;;;;8.43;4.70;;;;;;;;;;5034147;28;20071;-67
2022/12/26 09:40:22;;;;;;;7.72;4.70;;;15.50;97.70;;;;;;5034071;28;20103;-68
2022/12/26 09:43:05;;;;;;;7.60;4.60;;;15.40;97.60;;;;;;5032736;28;20053;-68
2022/12/26 09:46:20;;;;;;;8.88;4.53;;;15.50;96.40;;;;;;5072547;28;20044;-67
2022/12/26 09:48:53;;;;;;;9.63;4.45;;;15.40;97.90;;;;;;4992416;28;20054;-75
2022/12/26 09:51:19;;;;;;;9.60;4.22;;;15.40;97.60;;;;;;4975828;28;20137;-72
2022/12/26 09:53:46;;;;;;;6.43;3.95;;;15.40;97.60;;;;;;4980135;28;20126;-68
2022/12/26 09:56:14;;;;;;;10.05;4.32;;;15.40;97.60;;;;;;4960376;28;20042;-69
2022/12/26 09:58:53;;;;;;;7.03;3.80;;;15.60;95.90;;;;;;4976165;28;20061;-68
2022/12/26 10:01:27;;;;;;;6.47;3.70;;;15.70;96.30;;;;;;4992120;28;20455;-70
2022/12/26 10:03:57;;;;;;;5.88;3.40;;;15.60;97.80;;;;;;4977409;28;20058;-69
2022/12/26 10:06:29;;;;;;;8.02;3.80;;;15.20;97.50;;;;;;4989197;28;20134;-65
2022/12/26 10:08:54;;;;;;;8.45;3.58;;;15.50;96.40;;;;;;4991125;28;20047;-62
2022/12/26 10:11:47;;;;;;;5.82;3.25;;;15.40;95.70;;;;;;4987805;28;20054;-71
2022/12/26 10:14:15;;;;;;;7.18;3.00;;;15.40;97.60;;;;;;4991999;28;20053;-69
2022/12/26 10:16:54;;;;;;;7.38;3.33;;;15.50;97.60;;;;;;4989866;28;20443;-68
2022/12/26 10:19:38;;;;;;;6.93;2.70;;;15.50;96.40;;;;;;4975730;28;20476;-69
2022/12/26 10:22:08;;;;;;;6.50;2.80;;;15.60;97.70;;;;;;4991926;28;20085;-65
2022/12/26 10:24:34;;;;;;;5.97;2.40;;;15.40;96.00;;;;;;5027740;28;20390;-64
2022/12/26 10:27:13;;;;;;;5.30;2.80;;;15.50;97.60;;;;;;5067664;28;20032;-62
2022/12/26 10:29:57;;;;;;;6.60;3.15;;;15.50;97.60;;;;;;5055666;28;20127;-62
2022/12/26 10:32:29;;;;;;;5.00;2.15;;;15.50;97.60;;;;;;5071942;28;20102;-61
2022/12/26 10:34:55;;;;;;;6.70;2.28;;;15.60;97.50;;;;;;5072249;28;20478;-67
2022/12/26 10:37:27;;;;;;;6.45;2.45;;;15.80;96.90;;;;;;5069283;28;20086;-68
2022/12/26 10:40:04;;;;;;;6.38;2.45;;;15.70;97.50;;;;;;5073380;28;20045;-64
2022/12/26 10:42:37;;;;;;;5.80;2.10;;;15.70;97.50;;;;;;5073028;28;20125;-62
2022/12/26 10:45:12;;;;;;;7.55;2.08;;;;;;;;;;5042702;28;20140;-64
2022/12/26 10:47:42;;;;;;;5.60;2.03;;;15.30;97.30;;;;;;5036052;28;20119;-68
2022/12/26 10:50:23;;;;;;;6.82;2.30;;;15.80;97.00;;;;;;5071490;28;20044;-74
2022/12/26 10:52:48;;;;;;;5.18;1.85;;;16.00;97.40;;;;;;5071851;28;20051;-65
2022/12/26 10:55:16;;;;;;;8.63;1.90;;;15.50;97.20;;;;;;5068182;28;20032;-67
2022/12/26 10:57:44;;;;;;;7.07;1.98;;;;;;;;;;5070969;28;20048;-67
2022/12/26 11:00:14;;;;;;;5.90;1.75;;;;;;;;;;5069864;28;20401;-67
2022/12/26 11:02:40;;;;;;;5.55;1.88;;;;;;;;;;5033670;28;20116;-74
2022/12/26 11:05:09;;;;;;;21.55;2.42;;;15.70;95.90;;;;;;5032897;28;20045;-68
2022/12/26 11:07:52;;;;;;;6.32;1.77;;;15.70;95.30;;;;;;5031895;28;20124;-68
2022/12/26 11:10:23;;;;;;;4.72;1.60;;;;;;;;;;5038462;28;20058;-75
2022/12/26 11:12:54;;;;;;;5.53;1.85;;;15.60;97.00;;;;;;5067925;28;20043;-74
2022/12/26 11:15:29;;;;;;;6.55;1.77;;;15.90;95.80;;;;;;5055880;28;20187;-69
2022/12/26 11:17:55;;;;;;;7.15;1.70;;;15.60;97.00;;;;;;5061191;28;20048;-68
2022/12/26 11:20:25;;;;;;;6.05;1.65;;;15.60;95.80;;;;;;5031663;28;20046;-68
2022/12/26 11:22:51;;;;;;;4.85;1.60;;;15.80;97.10;;;;;;5065818;28;20053;-69
2022/12/26 11:25:22;;;;;;;6.35;1.60;;;15.80;97.10;;;;;;5075546;28;20510;-68
2022/12/26 11:27:56;;;;;;;6.95;1.70;;;15.60;97.00;;;;;;5076494;28;20054;-68
2022/12/26 11:30:30;;;;;;;5.93;1.75;;;15.70;95.00;;;;;;5076443;28;20084;-71
2022/12/26 11:33:12;;;;;;;4.72;1.35;;;;;;;;;;5071330;28;20037;-67
2022/12/26 11:36:13;;;;;;;5.22;1.55;;;15.70;95.60;;;;;;5056945;28;20049;-70
2022/12/26 11:38:59;;;;;;;11.02;1.80;;;15.90;95.10;;;;;;5042541;28;20514;-72
2022/12/26 11:41:31;;;;;;;10.43;2.20;;;16.00;96.90;;;;;;5039493;28;20040;-70
2022/12/26 11:44:17;;;;;;;8.77;1.85;;;15.80;94.90;;;;;;5073669;28;20060;-69
2022/12/26 11:47:11;;;;;;;4.78;1.50;;;15.70;94.90;;;;;;5074725;28;20506;-70
2022/12/26 11:49:41;;;;;;;5.80;1.80;;;;;;;;;;5057514;28;20053;-72
2022/12/26 11:52:44;;;;;;;9.43;1.63;;;16.00;94.90;;;;;;5052927;28;20047;-71
2022/12/26 11:55:25;;;;;;;6.90;1.73;;;16.20;94.90;;;;;;5054588;28;20067;-71
2022/12/26 11:58:07;;;;;;;6.13;1.77;;;16.10;94.90;;;;;;5053638;28;20056;-69
2022/12/26 12:00:34;;;;;;;6.15;1.52;;;16.00;96.80;;;;;;5054705;28;20045;-68
2022/12/26 12:03:01;;;;;;;7.88;1.90;;;16.30;96.80;;;;;;5053259;28;20045;-68
2022/12/26 12:05:50;;;;;;;5.57;1.70;;;16.10;94.80;;;;;;5056944;28;20067;-68
2022/12/26 12:08:16;;;;;;;7.38;1.63;;;;;;;;;;5052155;28;20179;-69
2022/12/26 12:10:51;;;;;;;5.18;1.42;;;15.90;96.60;;;;;;5053252;28;20586;-70
2022/12/26 12:13:32;;;;;;;6.30;1.70;;;16.20;95.30;;;;;;5053128;28;20041;-64
2022/12/26 12:16:20;;;;;;;3.78;0.90;;;15.90;94.80;;;;;;5053790;28;20048;-67
2022/12/26 12:19:05;;;;;;;4.38;1.50;;;16.00;96.70;;;;;;5052259;28;20376;-66
2022/12/26 12:22:08;;;;;;;3.63;1.23;;;16.10;95.00;;;;;;5051071;28;20486;-70
2022/12/26 12:24:53;;;;;;;4.97;1.30;;;16.10;94.90;;;;;;5048559;28;20041;-69
2022/12/26 12:27:29;;;;;;;4.55;1.30;;;16.00;96.80;;;;;;5042707;28;20041;-67
2022/12/26 12:30:13;;;;;;;4.65;0.98;;;16.10;96.90;;;;;;5051144;28;20086;-77
2022/12/26 12:32:44;;;;;;;4.53;1.10;;;;;;;;;;5048545;28;20057;-71
2022/12/26 12:35:31;;;;;;;3.55;1.38;;;16.30;97.00;;;;;;5051782;28;20033;-73
2022/12/26 12:38:28;;;;;;;3.63;1.15;;;16.00;95.10;;;;;;5052741;28;20083;-70
2022/12/26 12:41:19;;;;;;;4.30;1.60;;;15.90;97.00;;;;;;5053703;28;20380;-76
2022/12/26 12:44:08;;;;;;;5.07;1.40;;;16.10;95.20;;;;;;5048615;28;20045;-75
2022/12/26 12:47:10;;;;;;;5.93;1.48;;;16.10;95.20;;;;;;5069409;28;20056;-69
2022/12/26 12:49:40;;;;;;;7.88;1.60;;;15.90;96.90;;;;;;5054178;28;20149;-68
2022/12/26 12:52:06;;;;;;;5.32;1.20;;;;;;;;;;5052113;28;20056;-71
2022/12/26 12:54:38;;;;;;;7.70;1.38;;;16.40;97.00;;;;;;5046460;28;20077;-68
2022/12/26 12:57:07;;;;;;;6.13;1.20;;;;;;;;;;5054680;28;20448;-63
2022/12/26 12:59:44;;;;;;;4.60;1.40;;;16.10;97.00;;;;;;5050567;28;20053;-69
2022/12/26 13:02:34;;;;;;;6.00;1.50;;;16.00;95.60;;;;;;5036435;28;20041;-71
2022/12/26 13:05:37;;;;;;;6.90;1.40;;;16.20;95.50;;;;;;5050248;28;20045;-73
2022/12/26 13:08:11;;;;;;;8.25;1.67;;;;;;;;;;5048022;28;20041;-74
2022/12/26 13:10:45;;;;;;;6.70;1.52;;;16.10;95.40;;;;;;5050910;28;20064;-73
2022/12/26 13:13:42;;;;;;;7.55;2.17;;;16.00;93.40;;;;;;5019109;28;20475;-63
2022/12/26 13:16:30;;;;;;;8.27;2.10;;;16.10;93.30;;;;;;5045570;28;20057;-76
2022/12/26 13:18:59;;;;;;;10.63;2.35;;;15.70;94.10;;;;;;5022021;28;20042;-69
2022/12/26 13:21:26;;;;;;;8.90;2.28;;;;;;;;;;5037606;28;20391;-70
2022/12/26 13:24:24;;;;;;;10.60;1.92;;;15.90;93.00;;;;;;5052739;28;20391;-69
2022/12/26 13:26:53;;;;;;;12.35;2.22;;;16.00;94.30;;;;;;5020306;28;20046;-71
2022/12/26 13:29:33;;;;;;;10.55;1.80;;;16.20;92.60;;;;;;5046806;28;20049;-74
2022/12/26 13:31:59;;;;;;;8.98;2.35;;;16.00;94.40;;;;;;5047386;28;20076;-62
2022/12/26 13:34:25;;;;;;;9.95;2.00;;;16.20;93.10;;;;;;5048572;28;20041;-70
2022/12/26 13:36:52;;;;;;;8.38;1.90;;;;;;;;;;5033929;28;20052;-65
2022/12/26 13:39:27;;;;;;;7.70;2.00;;;;;;;;;;5050153;28;20041;-67
2022/12/26 13:44:53;;;;;;;8.32;2.33;;;;;;;;;;5032214;28;20511;-75
2022/12/26 13:47:35;;;;;;;7.68;1.73;;;;;;;;;;5030310;28;20495;-61
2022/12/26 13:50:40;;;;;;;13.98;2.05;;;16.30;93.50;;;;;;5033075;28;20053;-73
2022/12/26 13:53:24;;;;;;;9.25;2.15;;;16.00;93.00;;;;;;5036157;28;20106;-72
2022/12/26 13:56:11;;;;;;;9.73;2.25;;;;;;;;;;5033998;28;20159;-74
2022/12/26 13:58:37;;;;;;;9.35;1.70;;;;;;;;;;5007409;28;20048;-72
2022/12/26 14:01:22;;;;;;;9.60;2.15;;;;;;;;;;5055639;28;20045;-69
2022/12/26 14:04:08;;;;;;;8.75;1.95;;;;;;;;;;5037941;28;20773;-68
2022/12/26 14:07:02;;;;;;;7.68;1.60;;;15.90;93.40;;;;;;5021771;28;20083;-73
2022/12/26 14:09:43;;;;;;;;;;;16.00;93.90;;;;;;5043093;28;20367;-68
2022/12/26 14:12:21;;;;;;;6.95;1.60;;;;;;;;;;5050562;28;19929;-61
2022/12/26 14:14:56;;;;;;;5.78;1.73;;;16.00;94.90;;;;;;5049645;28;20049;-66
2022/12/26 14:17:31;;;;;;;7.97;2.10;;;15.90;93.30;;;;;;5019806;28;20048;-65
2022/12/26 14:20:17;;;;;;;7.80;2.00;;;;;;;;;;5036489;28;20116;-62
2022/12/26 14:22:46;;;;;;;7.95;1.92;;;15.80;94.80;;;;;;5044758;28;20045;-67
2022/12/26 14:25:33;;;;;;;8.10;1.90;;;15.70;93.50;;;;;;5040489;28;20055;-63
2022/12/26 14:27:59;;;;;;;6.20;1.63;;;;;;;;;;5049728;28;20516;-63
2022/12/26 14:30:28;;;;;;;9.02;1.80;;;;;;;;;;5045470;28;20056;-70
2022/12/26 14:33:06;;;;;;;9.57;2.10;;;15.80;93.50;;;;;;5045929;28;20120;-63
2022/12/26 14:35:37;;;;;;;4.90;1.80;;;;;;;;;;5033855;28;20050;-67
2022/12/26 14:38:32;;;;;;;8.07;1.80;;;15.50;93.70;;;;;;5045219;28;20049;-75
2022/12/26 14:41:00;;;;;;;5.47;1.58;;;;;;;;;;5028357;28;20049;-69
2022/12/26 14:43:32;;;;;;;6.60;1.90;;;;;;;;;;5041906;28;20040;-71
2022/12/26 14:45:58;;;;;;;6.22;1.88;;;15.80;94.90;;;;;;5043302;28;20112;-72
2022/12/26 14:48:27;;;;;;;7.80;1.98;;;;;;;;;;5039718;28;20045;-66
2022/12/26 14:51:02;;;;;;;6.55;1.98;;;;;;;;;;5042849;28;20441;-63
2022/12/26 14:53:29;;;;;;;8.45;1.50;;;;;;;;;;5040211;28;20410;-62
2022/12/26 14:55:57;;;;;;;6.97;1.90;;;15.70;95.50;;;;;;5032799;28;20109;-66
2022/12/26 14:58:43;;;;;;;6.88;1.80;;;16.00;93.80;;;;;;5036668;28;20411;-65
2022/12/26 15:01:14;;;;;;;8.70;1.65;;;;;;;;;;5035622;28;20055;-68
2022/12/26 15:03:49;;;;;;;5.43;1.58;;;;;;;;;;5046224;28;20041;-61
2022/12/26 15:06:18;;;;;;;7.63;2.03;;;15.80;93.60;;;;;;5043006;28;20491;-69
2022/12/26 15:08:53;;;;;;;5.80;1.55;;;;;;;;;;5038768;28;20064;-72
2022/12/26 15:11:28;;;;;;;8.38;2.30;;;15.70;93.40;;;;;;5037393;28;20086;-67
2022/12/26 15:14:31;;;;;;;10.30;2.22;;;15.60;92.80;;;;;;5054813;28;20480;-74
2022/12/26 15:17:24;;;;;;;8.18;2.08;;;15.50;92.40;;;;;;5035252;28;20053;-66
2022/12/26 15:20:08;;;;;;;11.25;2.53;;;15.70;92.10;;;;;;5033784;28;20117;-64
2022/12/26 15:22:45;;;;;;;11.63;2.70;;;;;;;;;;5040228;28;20522;-70
2022/12/26 15:25:30;;;;;;;14.38;2.95;;;;;;;;;;5051803;28;20474;-68
2022/12/26 15:28:37;;;;;;;22.65;3.08;;;15.20;91.10;;;;;;5059054;28;20044;-66
2022/12/26 15:31:10;;;;;;;15.35;2.75;;;15.10;91.10;;;;;;5060807;28;20040;-67